OMAAOMSJ

Guest
Details From OMAA - ABU DHABI INTL
To OMSJ - SHARJAH INTL
Flight Number -
Tags generated
Created
Modified
Stats Distance 72 nm / 133 km
Max Altitude 6,800 ft / 2,073 m
Waypoints 3
Social Downloads 2
Likes 0
Share VATSIM

Download

Looking for another format? Having issues loading an existing format? Contact us
Advertisement - Login to hide

Notes

Basic altitude profile: - Ascent Rate: 2500ft/min - Ascent Speed: 250kts - Cruise Altitude: 35000ft - Cruise Speed: 420kts - Descent Rate: 1500ft/min - Descent Speed: 250kts Options: - Use NATs: yes - Use PACOTS: yes - Use low airways: yes - Use high airways: yes

Route

OMAA GONDI OMSJ

ID Type Via Altitude Latitude Longitude Leg Dist Tot Dist Heading (true) Name
O OMAA APT - 0 ft / 0 m 24.43305˚ 54.65118˚ - 0 nm - ABU DHABI INTL
GONDI FIX - 6,800 ft / 2,073 m 24.66389˚ 54.89056˚ 19 nm 19 nm 43° / 43° -
O OMSJ APT - 0 ft / 0 m 25.32859˚ 55.51722˚ 52 nm 71 nm 40° / 41° SHARJAH INTL

Altitude Profile

Advertisement - Login to hide

OMAA

Details ICAO OMAA (AUH)
Name ABU DHABI INTL
Region United Arab Emirates
Timezone Asia/Dubai (UTC+4.0)
Stats Elevation 88 ft / 27 m (AMSL)
Location 24.433049° 54.651182°
Runways 1
Magnetic Variation 1.979° E

METAR

OMAA 150800Z 16011KT 140V200 CAVOK 25/12 Q1018 NOSIG

Decode

TAF

TAF OMAA 150500Z 1506/1612 16012KT 8000 FEW050 BECMG 1518/1520 10008KT BECMG 1600/1602 17014KT BECMG 1610/1612 VRB02KT

Decode

Departure Runways

ID Width Length Bearing (true) Bearing (mag) Surface Threshold Offset Overrun Length
13 148 ft / 45 m 13,461 ft / 4,103 m 127.94° 125.96° Asphalt 0 ft / 0 m 180 ft / 55 m
31 148 ft / 45 m 13,461 ft / 4,103 m 307.95° 305.97° Asphalt 0 ft / 0 m 196 ft / 60 m

OMSJ

Details ICAO OMSJ (SHJ)
Name SHARJAH INTL
Region United Arab Emirates
Timezone Asia/Dubai (UTC+4.0)
Stats Elevation 111 ft / 34 m (AMSL)
Location 25.328587° 55.517218°
Runways 1
Magnetic Variation 2.044° E

METAR

OMSJ 150800Z 20013KT 160V230 CAVOK 25/13 Q1019

Decode

TAF

TAF OMSJ 150504Z 1506/1612 17008KT 8000 FEW040 PROB30 TEMPO 1506/1509 17015G25KT 4000 BLDU PROB30 TEMPO 1508/1516 VRB18G30KT 3000 SHRA BLDU FEW040TCU PROB30 1511/1515 01010KT PROB30 TEMPO 1608/1612 VRB18G30KT 1500 SHRA BLDU SCT040TCU BECMG 1610/1612 36012KT

Decode

Destination Runways

ID Width Length Bearing (true) Bearing (mag) Surface Threshold Offset Overrun Length
12 148 ft / 45 m 13,266 ft / 4,043 m 122.45° 120.41° Asphalt 689 ft / 210 m 488 ft / 149 m
30 148 ft / 45 m 13,266 ft / 4,043 m 302.47° 300.43° Asphalt 984 ft / 300 m 488 ft / 149 m

Approach Navaids

Runway Type Ident Frequency Range Bearing (true) Bearing (mag) Slope Elevation
30 Localiser ISJ 109.70 MHz 18 nm / 33 km 302.45° 300.40° - 111 ft / 34 m (AMSL)
30 Glidescope ISJ 109.70 MHz 10 nm / 19 km 302.46° 300.42° 3.00° 111 ft / 34 m (AMSL)